Time;durP1;ratioP1;P1;durP2;ratioP2;P2;SDS_P1;SDS_P2;PMS_P1;PMS_P2;Temp;Humidity;BMP_temperature;BMP_pressure;BME280_temperature;BME280_humidity;BME280_pressure;Samples;Min_cycle;Max_cycle;Signal;HPM_P1;HPM_P2
2023/01/03 00:01:49;;;;;;;5.35;2.17;;;15.20;85.30;;;;;;4176251;28;20056;-59
2023/01/03 00:04:31;;;;;;;4.15;1.88;;;15.30;85.10;;;;;;4201663;28;20051;-59
2023/01/03 00:07:12;;;;;;;6.50;2.00;;;15.30;85.00;;;;;;4192693;28;20058;-59
2023/01/03 00:09:53;;;;;;;5.00;1.95;;;15.30;84.80;;;;;;4192339;28;20059;-59
2023/01/03 00:12:34;;;;;;;4.35;2.03;;;15.30;84.90;;;;;;4192857;28;20566;-58
2023/01/03 00:15:15;;;;;;;3.50;1.63;;;15.30;84.90;;;;;;4198436;28;20181;-59
2023/01/03 00:17:56;;;;;;;5.57;1.95;;;15.30;84.90;;;;;;4191286;28;20117;-59
2023/01/03 00:20:38;;;;;;;3.45;1.88;;;15.40;83.80;;;;;;4192755;28;20122;-59
2023/01/03 00:23:19;;;;;;;4.43;1.70;;;15.40;84.30;;;;;;4192363;28;20142;-59
2023/01/03 00:26:09;;;;;;;4.75;2.33;;;15.50;84.30;;;;;;4192287;28;20051;-58
2023/01/03 00:28:50;;;;;;;6.65;2.10;;;15.40;84.00;;;;;;4180123;28;20126;-58
2023/01/03 00:31:31;;;;;;;3.47;1.50;;;15.40;84.30;;;;;;4169143;28;20114;-59
2023/01/03 00:34:11;;;;;;;6.70;1.75;;;15.40;84.00;;;;;;4208685;28;20055;-63
2023/01/03 00:36:54;;;;;;;6.20;2.10;;;15.50;84.00;;;;;;4204763;28;20051;-59
2023/01/03 00:39:35;;;;;;;4.82;2.35;;;15.50;84.00;;;;;;4192542;28;20121;-58
2023/01/03 00:42:16;;;;;;;3.93;1.83;;;15.40;83.80;;;;;;4208759;28;20170;-58
2023/01/03 00:44:57;;;;;;;8.05;1.73;;;15.40;83.70;;;;;;4208607;28;20054;-58
2023/01/03 00:47:38;;;;;;;4.90;1.60;;;15.50;83.90;;;;;;4196272;28;20617;-59
2023/01/03 00:50:19;;;;;;;5.17;1.70;;;15.50;84.60;;;;;;4192189;28;20617;-58
2023/01/03 00:53:01;;;;;;;4.35;1.48;;;15.60;83.40;;;;;;4189997;28;20289;-58
2023/01/03 00:55:42;;;;;;;4.55;2.08;;;15.70;82.90;;;;;;4175393;28;20060;-58
2023/01/03 00:58:22;;;;;;;2.42;1.20;;;15.70;82.60;;;;;;4175489;28;20052;-59
2023/01/03 01:01:07;;;;;;;5.63;1.63;;;15.70;82.50;;;;;;4175234;28;20202;-59
2023/01/03 01:03:52;;;;;;;4.43;1.75;;;15.70;82.30;;;;;;4175242;28;20051;-59
2023/01/03 01:06:35;;;;;;;2.35;1.40;;;15.70;82.40;;;;;;4197598;28;20059;-59
2023/01/03 01:09:20;;;;;;;4.43;1.90;;;15.70;82.50;;;;;;4191979;28;20063;-59
2023/01/03 01:12:01;;;;;;;3.20;1.45;;;15.70;82.60;;;;;;4202892;28;20082;-58
2023/01/03 01:14:42;;;;;;;3.63;1.90;;;15.70;82.60;;;;;;4208492;28;20494;-58
2023/01/03 01:17:23;;;;;;;3.78;2.33;;;15.70;82.60;;;;;;4197123;28;20056;-59
2023/01/03 01:20:06;;;;;;;11.70;1.50;;;15.70;82.50;;;;;;4192146;28;20052;-59
2023/01/03 01:22:47;;;;;;;2.13;1.40;;;15.70;82.50;;;;;;4203207;28;20454;-59
2023/01/03 01:25:29;;;;;;;3.23;1.57;;;15.70;82.50;;;;;;4208528;28;20395;-59
2023/01/03 01:28:09;;;;;;;1.95;1.40;;;15.70;82.60;;;;;;4175315;28;20122;-59
2023/01/03 01:30:50;;;;;;;4.15;1.83;;;15.60;82.60;;;;;;4182590;28;20116;-59
2023/01/03 01:33:33;;;;;;;3.20;2.03;;;15.60;83.80;;;;;;4198526;28;20153;-59
2023/01/03 01:36:16;;;;;;;4.47;1.42;;;15.60;83.10;;;;;;4191465;28;20318;-58
2023/01/03 01:38:59;;;;;;;2.97;1.35;;;15.70;83.10;;;;;;4191184;28;20051;-59
2023/01/03 01:45:00;;;;;;;3.97;1.70;;;15.70;82.80;;;;;;4156767;28;20060;-58
2023/01/03 01:47:53;;;;;;;3.33;1.30;;;15.70;83.00;;;;;;4197111;28;20055;-58
2023/01/03 01:50:39;;;;;;;7.18;1.58;;;15.70;82.60;;;;;;4207827;28;20121;-59
2023/01/03 01:53:24;;;;;;;4.35;1.70;;;15.70;83.00;;;;;;4208023;28;20059;-58
2023/01/03 01:56:08;;;;;;;3.60;1.90;;;15.60;83.00;;;;;;4202408;28;20050;-58
2023/01/03 01:58:53;;;;;;;3.83;2.15;;;15.70;82.90;;;;;;4191133;28;20056;-59
2023/01/03 02:01:35;;;;;;;2.60;1.52;;;15.70;82.70;;;;;;4192256;28;20101;-59
2023/01/03 02:04:21;;;;;;;3.92;1.80;;;15.70;82.80;;;;;;4199309;28;20051;-58
2023/01/03 02:07:03;;;;;;;3.42;2.15;;;15.70;82.70;;;;;;4207621;28;20043;-59
2023/01/03 02:09:44;;;;;;;;;;;15.70;82.80;;;;;;4198895;28;20385;-59
2023/01/03 02:16:03;;;;;;;3.03;2.28;;;15.60;83.30;;;;;;4195273;28;20051;-59
2023/01/03 02:18:51;;;;;;;4.88;2.42;;;15.50;83.30;;;;;;4207469;28;20058;-59
2023/01/03 02:21:59;;;;;;;5.47;2.30;;;15.60;84.20;;;;;;4194688;28;20145;-59
2023/01/03 02:25:17;;;;;;;4.45;2.22;;;15.60;83.00;;;;;;4194594;28;20149;-58
2023/01/03 02:28:21;;;;;;;6.15;2.20;;;15.60;82.70;;;;;;4194263;28;20137;-59
2023/01/03 02:31:08;;;;;;;4.20;1.90;;;15.70;82.90;;;;;;4197768;28;20070;-59
2023/01/03 02:33:55;;;;;;;7.82;2.25;;;15.70;82.80;;;;;;4210974;28;20051;-58
2023/01/03 02:36:42;;;;;;;3.33;1.90;;;15.80;82.60;;;;;;4210753;28;20059;-59
2023/01/03 02:39:28;;;;;;;3.92;1.98;;;15.70;82.50;;;;;;4202077;28;20103;-59
2023/01/03 02:45:16;;;;;;;7.10;2.10;;;15.80;82.40;;;;;;4204577;28;20055;-59
2023/01/03 02:48:04;;;;;;;2.17;1.30;;;15.80;82.40;;;;;;4195871;28;20429;-59
2023/01/03 02:50:48;;;;;;;3.13;1.73;;;15.80;82.30;;;;;;4177114;28;20055;-59
2023/01/03 02:53:33;;;;;;;5.28;2.35;;;15.70;82.30;;;;;;4177222;28;20375;-60
2023/01/03 02:56:19;;;;;;;2.42;1.50;;;15.70;82.50;;;;;;4177108;28;20055;-59
2023/01/03 02:59:05;;;;;;;3.78;2.05;;;15.70;82.80;;;;;;4181633;28;20196;-59
2023/01/03 03:01:49;;;;;;;5.10;1.90;;;15.70;82.80;;;;;;4194107;28;20051;-60
2023/01/03 03:04:35;;;;;;;3.85;1.70;;;15.80;82.40;;;;;;4176720;28;20115;-59
2023/01/03 03:07:23;;;;;;;4.53;1.95;;;15.80;82.10;;;;;;4176664;28;20467;-59
2023/01/03 03:13:13;;;;;;;2.50;1.67;;;15.80;82.40;;;;;;4192861;28;20060;-59
2023/01/03 03:16:00;;;;;;;4.47;1.95;;;15.80;82.20;;;;;;4193557;28;20059;-59
2023/01/03 03:18:50;;;;;;;2.78;1.85;;;15.80;82.10;;;;;;4193334;28;20051;-60
2023/01/03 03:24:49;;;;;;;7.25;1.90;;;15.80;81.90;;;;;;4194493;28;20127;-59
2023/01/03 03:30:35;;;;;;;6.85;2.10;;;15.80;82.30;;;;;;4203556;28;20507;-59
2023/01/03 03:33:20;;;;;;;3.00;2.13;;;15.80;82.10;;;;;;4193673;28;20047;-59
2023/01/03 03:36:07;;;;;;;3.40;1.48;;;15.80;82.00;;;;;;4193437;28;20055;-60
2023/01/03 03:38:50;;;;;;;12.00;2.20;;;15.80;81.90;;;;;;4193505;28;20055;-59
2023/01/03 03:47:51;;;;;;;7.07;2.05;;;15.70;82.30;;;;;;4192770;28;20503;-59
2023/01/03 03:50:38;;;;;;;2.88;2.15;;;15.70;82.60;;;;;;4176173;28;20056;-59
2023/01/03 03:53:23;;;;;;;4.32;2.35;;;15.70;83.50;;;;;;4194211;28;20059;-59
2023/01/03 03:56:09;;;;;;;4.82;2.08;;;15.70;82.30;;;;;;4209499;28;20101;-58
2023/01/03 03:58:56;;;;;;;5.22;2.45;;;15.80;82.00;;;;;;4201995;28;20074;-58
2023/01/03 04:01:40;;;;;;;3.83;2.20;;;15.80;81.90;;;;;;4192728;28;20059;-59
2023/01/03 04:04:24;;;;;;;5.63;2.60;;;15.80;81.80;;;;;;4192832;28;20055;-59
2023/01/03 04:07:05;;;;;;;3.42;2.10;;;15.80;81.70;;;;;;4192834;28;20047;-58
2023/01/03 04:09:46;;;;;;;4.00;2.78;;;15.70;81.80;;;;;;4193472;28;20083;-59
2023/01/03 04:12:28;;;;;;;6.13;2.77;;;15.70;82.00;;;;;;4192060;28;20052;-60
2023/01/03 04:15:10;;;;;;;4.03;3.03;;;15.80;82.10;;;;;;4191982;28;20410;-59
2023/01/03 04:17:51;;;;;;;6.40;2.92;;;15.80;82.00;;;;;;4192205;28;20063;-58
2023/01/03 04:20:32;;;;;;;4.82;4.15;;;15.80;81.90;;;;;;4175988;28;20113;-58
2023/01/03 04:23:13;;;;;;;5.70;4.10;;;15.80;81.80;;;;;;4175818;28;20075;-59
2023/01/03 04:25:54;;;;;;;3.50;3.20;;;15.80;81.60;;;;;;4201622;28;20289;-58
2023/01/03 04:28:36;;;;;;;5.03;3.70;;;15.80;81.50;;;;;;4204698;28;20059;-59
2023/01/03 04:31:17;;;;;;;7.20;4.03;;;15.80;81.50;;;;;;4192800;28;20201;-59
2023/01/03 04:33:58;;;;;;;5.97;3.83;;;15.80;81.60;;;;;;4192852;28;20117;-58
2023/01/03 04:36:38;;;;;;;7.87;4.10;;;15.80;81.70;;;;;;4192630;28;20067;-59
2023/01/03 04:39:19;;;;;;;6.65;4.32;;;15.70;82.00;;;;;;4184753;28;20360;-59
2023/01/03 04:44:00;;;;;;;8.10;4.55;;;15.70;82.00;;;;;;4175362;28;20059;-59
2023/01/03 04:45:02;;;;;;;7.70;4.95;;;15.70;82.10;;;;;;4175450;28;20493;-59
2023/01/03 04:47:43;;;;;;;8.63;4.50;;;15.70;82.10;;;;;;4175554;28;20474;-59
2023/01/03 04:50:25;;;;;;;4.65;4.00;;;15.70;82.10;;;;;;4175537;28;20067;-58
2023/01/03 04:53:06;;;;;;;8.30;4.95;;;15.70;82.20;;;;;;4186006;28;20182;-59
2023/01/03 04:55:48;;;;;;;8.18;5.10;;;15.70;81.70;;;;;;4208501;28;20073;-59
2023/01/03 04:58:28;;;;;;;6.85;5.22;;;15.70;82.30;;;;;;4201287;28;20059;-58
2023/01/03 05:01:11;;;;;;;7.32;5.32;;;15.60;82.40;;;;;;4192400;28;20162;-58
2023/01/03 05:03:56;;;;;;;8.20;5.82;;;15.70;82.60;;;;;;4192436;28;20059;-59
2023/01/03 05:06:37;;;;;;;7.82;5.78;;;15.70;82.50;;;;;;4193218;28;20059;-60
2023/01/03 05:09:18;;;;;;;6.57;4.93;;;15.70;82.20;;;;;;4195060;28;20048;-59
2023/01/03 05:11:59;;;;;;;7.93;5.87;;;15.70;82.00;;;;;;4191805;28;20109;-59
2023/01/03 05:14:40;;;;;;;11.60;6.38;;;15.80;82.10;;;;;;4192154;28;20297;-59
2023/01/03 05:17:22;;;;;;;;;;;15.70;83.10;;;;;;4195883;28;20050;-59
2023/01/03 05:26:01;;;;;;;8.23;6.60;;;15.80;82.10;;;;;;4187165;28;20440;-59
2023/01/03 05:28:44;;;;;;;7.05;6.32;;;15.80;81.80;;;;;;4197731;28;20219;-59
2023/01/03 05:31:25;;;;;;;10.05;7.15;;;15.90;81.60;;;;;;4196189;28;20100;-58
2023/01/03 05:34:07;;;;;;;9.52;6.53;;;15.90;82.20;;;;;;4208578;28;20042;-59
2023/01/03 05:36:48;;;;;;;8.38;6.68;;;15.90;81.20;;;;;;4208315;28;20486;-59
2023/01/03 05:39:29;;;;;;;7.45;6.20;;;15.90;81.20;;;;;;4175158;28;20392;-59
2023/01/03 05:42:10;;;;;;;8.77;7.03;;;16.00;81.30;;;;;;4175348;28;20217;-59
2023/01/03 05:44:51;;;;;;;11.55;7.20;;;15.90;81.00;;;;;;4175164;28;20060;-59
2023/01/03 05:47:32;;;;;;;9.85;7.05;;;16.00;81.10;;;;;;4203421;28;20109;-59
2023/01/03 05:50:14;;;;;;;9.35;7.57;;;16.00;81.20;;;;;;4192027;28;20055;-59
2023/01/03 05:52:55;;;;;;;9.55;7.32;;;15.90;81.10;;;;;;4192016;28;20502;-60
2023/01/03 05:55:36;;;;;;;11.27;9.15;;;15.90;81.20;;;;;;4195308;28;20051;-59
2023/01/03 05:58:17;;;;;;;;;;;15.80;81.40;;;;;;4195272;28;20184;-63
2023/01/03 06:00:58;;;;;;;12.82;8.00;;;15.80;81.90;;;;;;4205651;28;20053;-59
2023/01/03 06:03:38;;;;;;;10.63;7.60;;;15.80;82.20;;;;;;4211433;28;20055;-59
2023/01/03 06:06:21;;;;;;;11.50;8.48;;;15.80;82.00;;;;;;4211524;28;20055;-58
2023/01/03 06:09:02;;;;;;;10.70;8.27;;;15.80;81.70;;;;;;4177555;28;20175;-59
2023/01/03 06:11:43;;;;;;;12.30;9.32;;;15.80;81.50;;;;;;4177670;28;20055;-59
2023/01/03 06:14:24;;;;;;;12.40;8.88;;;15.80;81.60;;;;;;4178269;28;20068;-59
2023/01/03 06:20:04;;;;;;;13.25;9.18;;;15.80;81.60;;;;;;4193868;28;20059;-59
2023/01/03 06:22:46;;;;;;;13.25;9.35;;;15.80;81.60;;;;;;4194331;28;20850;-59
2023/01/03 06:25:27;;;;;;;12.70;9.38;;;15.80;81.50;;;;;;4194459;28;20067;-59
2023/01/03 06:28:08;;;;;;;14.85;9.60;;;15.80;81.60;;;;;;4194161;28;20059;-58
2023/01/03 06:30:49;;;;;;;15.10;10.25;;;15.80;81.50;;;;;;4178020;28;20059;-59
2023/01/03 06:33:30;;;;;;;13.90;10.07;;;15.90;81.30;;;;;;4177585;28;20143;-58
2023/01/03 06:36:13;;;;;;;13.70;9.95;;;15.90;81.20;;;;;;4177442;28;20118;-58
2023/01/03 06:38:55;;;;;;;13.45;10.07;;;15.90;81.20;;;;;;4177532;28;20118;-58
2023/01/03 06:41:36;;;;;;;13.98;10.35;;;15.80;81.20;;;;;;4177785;28;20122;-58
2023/01/03 06:44:17;;;;;;;16.55;11.38;;;15.80;81.40;;;;;;4177583;28;20126;-57
2023/01/03 06:56:03;;;;;;;13.23;9.20;;;15.70;82.10;;;;;;4169813;28;20052;-59
2023/01/03 06:58:44;;;;;;;15.23;10.77;;;15.70;82.10;;;;;;4177342;28;20407;-58
2023/01/03 07:01:25;;;;;;;16.07;10.00;;;15.70;82.10;;;;;;4177484;28;20179;-59
2023/01/03 07:04:06;;;;;;;17.27;11.80;;;15.70;81.90;;;;;;4177184;28;20788;-60
2023/01/03 07:06:47;;;;;;;14.77;11.07;;;15.80;81.80;;;;;;4167491;28;20391;-58
2023/01/03 07:09:28;;;;;;;16.75;9.55;;;15.80;81.90;;;;;;4192828;28;20051;-59
2023/01/03 07:15:11;;;;;;;16.27;10.50;;;15.90;81.40;;;;;;4176391;28;20135;-60
2023/01/03 07:17:52;;;;;;;17.15;10.60;;;15.90;81.50;;;;;;4190735;28;20457;-59
2023/01/03 07:20:33;;;;;;;17.40;10.73;;;16.00;82.50;;;;;;4193101;28;20472;-59
2023/01/03 07:23:14;;;;;;;14.87;11.63;;;16.10;80.90;;;;;;4176908;28;20052;-59
2023/01/03 07:25:55;;;;;;;12.75;9.38;;;16.20;80.30;;;;;;4182799;28;20326;-59
2023/01/03 07:28:38;;;;;;;;;;;16.20;79.70;;;;;;4177379;28;20056;-58
2023/01/03 07:31:19;;;;;;;16.70;10.15;;;16.20;79.60;;;;;;4178349;28;20178;-59
2023/01/03 07:34:01;;;;;;;14.20;10.77;;;16.10;79.50;;;;;;4192878;28;20689;-59
2023/01/03 07:36:42;;;;;;;15.13;9.88;;;16.10;79.20;;;;;;4204412;28;20189;-58
2023/01/03 07:39:23;;;;;;;14.73;10.75;;;16.10;79.00;;;;;;4209327;28;20711;-58
2023/01/03 07:45:04;;;;;;;15.73;10.55;;;16.00;78.80;;;;;;4175897;28;20047;-58
2023/01/03 07:47:46;;;;;;;13.32;10.15;;;15.90;78.70;;;;;;4186826;28;20183;-59
2023/01/03 07:50:27;;;;;;;15.40;10.23;;;15.90;78.70;;;;;;4176231;28;20437;-58
2023/01/03 07:53:15;;;;;;;14.23;10.93;;;15.80;78.60;;;;;;4178182;28;20048;-59
2023/01/03 07:56:01;;;;;;;14.23;10.10;;;15.70;78.50;;;;;;4193034;28;20457;-59
2023/01/03 07:58:47;;;;;;;18.50;11.07;;;15.70;78.70;;;;;;4192289;28;20130;-59
2023/01/03 08:01:29;;;;;;;14.43;9.65;;;15.60;78.70;;;;;;4192806;28;20510;-58
2023/01/03 08:04:10;;;;;;;13.73;10.50;;;15.70;78.50;;;;;;4192367;28;20055;-59
2023/01/03 08:06:51;;;;;;;14.15;10.02;;;15.80;78.20;;;;;;4193174;28;20111;-58
2023/01/03 08:15:29;;;;;;;12.38;10.20;;;15.80;77.00;;;;;;4179936;28;20198;-58
2023/01/03 08:18:12;;;;;;;11.48;9.93;;;15.80;77.00;;;;;;4187316;28;20052;-59
2023/01/03 08:20:54;;;;;;;13.40;9.95;;;15.80;77.10;;;;;;4199846;28;20047;-56
2023/01/03 08:23:36;;;;;;;12.07;9.93;;;15.80;76.90;;;;;;4163010;28;20187;-59
2023/01/03 08:26:17;;;;;;;12.75;9.27;;;15.80;76.80;;;;;;4176864;28;20055;-59
2023/01/03 08:28:58;;;;;;;14.15;10.48;;;15.80;76.70;;;;;;4179815;28;20135;-59
2023/01/03 08:31:44;;;;;;;12.82;10.45;;;15.80;76.70;;;;;;4183895;28;20048;-59
2023/01/03 08:34:28;;;;;;;12.88;8.98;;;15.80;76.70;;;;;;4174772;28;20106;-58
2023/01/03 08:37:12;;;;;;;12.45;9.45;;;15.80;77.00;;;;;;4174476;28;20056;-58
2023/01/03 08:39:56;;;;;;;13.73;9.90;;;15.80;76.90;;;;;;4174243;28;20190;-58
2023/01/03 08:42:38;;;;;;;18.48;10.35;;;15.80;76.40;;;;;;4171845;28;20400;-61
2023/01/03 08:45:18;;;;;;;14.30;9.30;;;15.80;76.00;;;;;;4177944;28;20044;-58
2023/01/03 08:48:01;;;;;;;11.73;9.18;;;15.80;75.90;;;;;;4185050;28;20056;-58
2023/01/03 08:50:43;;;;;;;13.15;9.52;;;15.80;75.60;;;;;;4165664;28;20060;-59
2023/01/03 08:53:24;;;;;;;12.40;9.68;;;15.80;75.50;;;;;;4175638;28;20052;-59
2023/01/03 08:56:07;;;;;;;13.15;9.57;;;15.70;75.40;;;;;;4176052;28;20600;-59
2023/01/03 08:58:47;;;;;;;12.07;9.70;;;15.60;75.40;;;;;;4173925;28;20391;-59
2023/01/03 09:01:28;;;;;;;13.43;9.85;;;15.50;75.40;;;;;;4177343;28;20861;-59
2023/01/03 09:04:09;;;;;;;;;;;15.50;75.70;;;;;;4177910;28;20055;-59
2023/01/03 09:06:52;;;;;;;11.93;10.07;;;15.40;76.10;;;;;;4172329;28;19928;-59
2023/01/03 09:09:33;;;;;;;10.90;8.60;;;15.40;76.80;;;;;;4172935;28;20502;-60
2023/01/03 09:12:14;;;;;;;12.18;9.25;;;15.30;76.60;;;;;;4185132;28;20186;-59
2023/01/03 09:14:55;;;;;;;11.55;9.75;;;15.30;76.80;;;;;;4169028;28;20056;-59
2023/01/03 09:17:36;;;;;;;11.65;9.95;;;15.30;77.80;;;;;;4174178;28;20618;-59
2023/01/03 09:20:18;;;;;;;10.57;9.48;;;15.30;76.90;;;;;;4183840;28;20083;-59
2023/01/03 09:23:01;;;;;;;15.50;10.20;;;15.30;76.70;;;;;;4178100;28;20107;-59
2023/01/03 09:25:42;;;;;;;14.35;10.52;;;15.30;76.60;;;;;;4173628;28;20076;-59
2023/01/03 09:28:23;;;;;;;11.75;10.30;;;15.20;76.70;;;;;;4185553;28;20055;-59
2023/01/03 09:31:05;;;;;;;9.65;8.65;;;15.20;77.00;;;;;;4183795;28;20980;-59
2023/01/03 09:33:45;;;;;;;8.93;8.05;;;15.20;77.30;;;;;;4185371;28;20131;-59
2023/01/03 09:36:27;;;;;;;8.82;7.95;;;15.20;77.60;;;;;;4182964;28;20056;-60
2023/01/03 09:39:09;;;;;;;10.70;6.90;;;15.20;77.50;;;;;;4185186;28;20083;-60
2023/01/03 09:43:11;;;;;;;9.07;6.65;;;15.20;77.30;;;;;;4181798;28;20126;-60
2023/01/03 09:44:52;;;;;;;7.82;7.13;;;15.20;77.60;;;;;;4178432;28;20113;-60
2023/01/03 09:47:37;;;;;;;10.00;7.00;;;15.20;76.70;;;;;;4189643;28;20135;-59
2023/01/03 09:50:22;;;;;;;7.93;7.10;;;15.10;76.40;;;;;;4178164;28;20072;-60
2023/01/03 10:06:01;;;;;;;12.23;7.65;;;14.80;76.50;;;;;;4176958;28;20048;-59
2023/01/03 10:09:01;;;;;;;14.60;7.38;;;14.80;77.00;;;;;;4184828;28;20118;-60
2023/01/03 10:11:54;;;;;;;12.27;8.02;;;14.70;77.20;;;;;;4177766;28;20105;-60
2023/01/03 10:14:45;;;;;;;11.65;8.93;;;14.70;77.10;;;;;;4163022;28;20109;-60
2023/01/03 10:17:33;;;;;;;14.95;8.70;;;14.70;77.20;;;;;;4166991;28;20107;-59
2023/01/03 10:20:25;;;;;;;14.45;9.65;;;14.60;77.70;;;;;;4179593;28;20055;-61
2023/01/03 10:23:11;;;;;;;19.92;9.20;;;14.60;78.00;;;;;;4175245;28;20565;-60
2023/01/03 10:25:52;;;;;;;17.95;9.00;;;14.70;78.00;;;;;;4188212;28;20048;-60
2023/01/03 10:28:39;;;;;;;22.92;9.18;;;14.80;77.50;;;;;;4176540;28;20461;-61
2023/01/03 10:31:33;;;;;;;16.65;10.20;;;14.80;76.60;;;;;;4181548;28;20110;-60
2023/01/03 10:34:15;;;;;;;20.02;9.52;;;14.80;76.00;;;;;;4190684;28;20052;-60
2023/01/03 10:36:56;;;;;;;22.98;9.98;;;14.90;75.90;;;;;;4179259;28;20393;-59
2023/01/03 10:39:37;;;;;;;24.08;10.75;;;14.80;75.90;;;;;;4181971;28;20562;-60
2023/01/03 10:42:19;;;;;;;27.25;11.55;;;14.80;76.20;;;;;;4180252;28;20056;-60
2023/01/03 10:45:03;;;;;;;21.58;11.95;;;14.80;76.50;;;;;;4184485;28;20067;-59
2023/01/03 10:47:44;;;;;;;22.42;11.73;;;14.80;76.60;;;;;;4166557;28;20059;-59
2023/01/03 10:50:27;;;;;;;21.98;12.20;;;14.80;77.30;;;;;;4189689;28;20502;-59
2023/01/03 10:53:08;;;;;;;;;;;14.90;77.60;;;;;;4186702;28;20077;-61
2023/01/03 10:55:52;;;;;;;23.30;13.95;;;14.90;77.70;;;;;;4162603;28;19931;-60
2023/01/03 10:58:33;;;;;;;23.98;14.38;;;14.90;77.80;;;;;;4174617;28;20087;-60
2023/01/03 11:01:23;;;;;;;20.67;14.68;;;14.90;77.90;;;;;;4174978;28;20059;-61
2023/01/03 11:04:12;;;;;;;19.20;14.95;;;14.90;77.60;;;;;;4176461;28;20170;-60
2023/01/03 11:07:12;;;;;;;22.15;15.40;;;14.90;77.60;;;;;;4179253;28;20187;-60
2023/01/03 11:09:55;;;;;;;19.92;15.98;;;14.90;77.20;;;;;;4178307;28;20052;-60
2023/01/03 11:12:38;;;;;;;21.27;16.77;;;14.90;77.50;;;;;;4178874;28;20574;-60
2023/01/03 11:15:24;;;;;;;24.30;16.35;;;14.90;77.50;;;;;;4174584;28;20055;-59
2023/01/03 11:18:17;;;;;;;24.10;17.98;;;14.90;77.50;;;;;;4189977;28;20055;-60
2023/01/03 11:21:08;;;;;;;21.15;17.92;;;14.80;77.30;;;;;;4174403;28;20133;-60
2023/01/03 11:24:07;;;;;;;23.95;17.63;;;14.80;77.60;;;;;;4182971;28;20072;-60
2023/01/03 11:26:51;;;;;;;25.85;18.63;;;14.80;77.30;;;;;;4175047;28;20051;-60
2023/01/03 11:30:00;;;;;;;25.75;19.23;;;14.70;77.50;;;;;;4174407;28;20838;-61
2023/01/03 11:32:56;;;;;;;29.30;19.88;;;14.70;77.50;;;;;;4182795;28;20522;-60
2023/01/03 11:36:19;;;;;;;26.75;18.02;;;14.60;78.10;;;;;;4179849;28;20490;-61
2023/01/03 11:39:13;;;;;;;32.75;20.85;;;14.60;78.40;;;;;;4173945;28;20052;-61
2023/01/03 11:42:09;;;;;;;30.55;19.67;;;14.60;79.20;;;;;;4175896;28;20098;-61
2023/01/03 11:45:29;;;;;;;27.92;18.75;;;14.60;79.20;;;;;;4180305;28;20059;-61
2023/01/03 11:48:30;;;;;;;24.83;17.48;;;14.70;79.00;;;;;;4173141;28;20067;-61
2023/01/03 11:51:21;;;;;;;27.17;18.90;;;14.70;78.70;;;;;;4176029;28;20047;-61
2023/01/03 11:54:09;;;;;;;30.52;18.85;;;14.80;79.00;;;;;;4174132;28;20060;-61
2023/01/03 11:56:51;;;;;;;25.98;18.13;;;14.80;79.00;;;;;;4189859;28;20056;-61
2023/01/03 11:59:51;;;;;;;25.13;16.83;;;14.80;79.00;;;;;;4189350;28;20403;-62
2023/01/03 12:02:55;;;;;;;27.95;17.83;;;14.80;78.90;;;;;;4180534;28;20226;-61
2023/01/03 12:05:44;;;;;;;25.33;17.67;;;14.90;78.90;;;;;;4173581;28;20051;-62
2023/01/03 12:08:51;;;;;;;25.85;18.13;;;14.90;79.10;;;;;;4189449;28;20067;-61
2023/01/03 12:11:47;;;;;;;32.50;16.92;;;15.00;79.10;;;;;;4175058;28;20071;-61
2023/01/03 12:14:33;;;;;;;26.85;18.67;;;15.00;78.80;;;;;;4189030;28;20129;-62
2023/01/03 12:17:17;;;;;;;26.30;19.02;;;15.10;78.70;;;;;;4173756;28;20056;-62
2023/01/03 12:20:02;;;;;;;26.30;19.35;;;15.10;78.60;;;;;;4179070;28;20047;-63
2023/01/03 12:22:45;;;;;;;25.73;18.63;;;15.10;78.50;;;;;;4177102;28;20076;-64
2023/01/03 12:25:31;;;;;;;26.33;18.98;;;15.10;78.70;;;;;;4182842;28;20063;-64
2023/01/03 12:28:17;;;;;;;28.35;20.10;;;15.10;79.00;;;;;;4163381;28;20419;-63
2023/01/03 12:31:01;;;;;;;27.27;19.17;;;15.10;78.80;;;;;;4172333;28;20087;-63
2023/01/03 12:33:48;;;;;;;28.02;18.73;;;15.10;78.90;;;;;;4178095;28;20130;-64
2023/01/03 12:36:37;;;;;;;26.65;18.88;;;15.10;79.80;;;;;;4181621;28;20090;-63
2023/01/03 12:39:34;;;;;;;24.73;17.75;;;15.20;79.00;;;;;;4173333;28;21284;-63
2023/01/03 12:42:24;;;;;;;27.13;18.13;;;15.20;78.70;;;;;;4172737;28;20060;-63
2023/01/03 12:45:25;;;;;;;25.33;16.25;;;15.30;78.40;;;;;;4173750;28;20052;-63
2023/01/03 12:48:30;;;;;;;24.02;16.60;;;15.30;78.20;;;;;;4188433;28;20052;-62
2023/01/03 12:51:14;;;;;;;24.15;15.32;;;15.40;78.40;;;;;;4186485;28;20122;-61
2023/01/03 12:54:07;;;;;;;20.95;15.00;;;15.40;78.60;;;;;;4187820;28;20059;-62
2023/01/03 12:57:08;;;;;;;25.23;15.57;;;15.30;78.50;;;;;;4172671;28;20059;-62
2023/01/03 13:00:22;;;;;;;18.27;14.00;;;15.30;79.60;;;;;;4173857;28;20055;-63
2023/01/03 13:03:07;;;;;;;22.50;13.95;;;15.20;78.80;;;;;;4173161;28;20501;-62
2023/01/03 13:05:51;;;;;;;17.75;13.15;;;15.20;79.10;;;;;;4189381;28;20055;-62
2023/01/03 13:08:40;;;;;;;20.10;13.57;;;15.10;79.10;;;;;;4175491;28;20182;-62
2023/01/03 13:11:26;;;;;;;19.00;12.88;;;15.10;79.30;;;;;;4188321;28;20063;-61
2023/01/03 13:14:18;;;;;;;16.10;12.82;;;15.00;79.50;;;;;;4175902;28;20064;-62
2023/01/03 13:17:19;;;;;;;17.73;11.68;;;15.00;79.50;;;;;;4182025;28;20183;-62
2023/01/03 13:20:24;;;;;;;23.23;13.18;;;15.00;79.50;;;;;;4187646;28;20072;-62
2023/01/03 13:23:30;;;;;;;16.63;12.30;;;15.00;79.40;;;;;;4172504;28;20056;-61
2023/01/03 13:26:23;;;;;;;17.83;12.73;;;15.00;79.40;;;;;;4172792;28;20084;-61
2023/01/03 13:29:42;;;;;;;14.93;10.85;;;14.90;79.80;;;;;;4175829;28;20063;-62
2023/01/03 13:32:27;;;;;;;18.73;11.55;;;14.90;80.10;;;;;;4176919;28;20183;-63
2023/01/03 13:35:36;;;;;;;14.93;10.82;;;15.00;80.00;;;;;;4173022;28;20061;-62
2023/01/03 13:38:20;;;;;;;14.43;10.10;;;15.10;79.40;;;;;;4173569;28;20051;-63
2023/01/03 13:41:08;;;;;;;12.98;10.20;;;15.20;78.90;;;;;;4180968;28;20518;-63
2023/01/03 13:44:09;;;;;;;17.65;9.77;;;15.40;78.40;;;;;;4183267;28;20399;-63
2023/01/03 13:46:51;;;;;;;15.10;10.13;;;15.50;77.80;;;;;;4177549;28;20083;-62
2023/01/03 13:49:35;;;;;;;14.68;10.50;;;15.60;78.20;;;;;;4181729;28;20510;-63
2023/01/03 13:52:35;;;;;;;13.27;9.30;;;15.60;78.60;;;;;;4186007;28;20617;-62
2023/01/03 13:55:35;;;;;;;15.75;10.63;;;15.70;79.30;;;;;;4179510;28;20044;-62
2023/01/03 13:58:30;;;;;;;15.63;10.30;;;15.70;79.40;;;;;;4182165;28;20048;-62
2023/01/03 14:01:26;;;;;;;13.85;10.20;;;15.70;79.20;;;;;;4178397;28;21058;-61
2023/01/03 14:04:31;;;;;;;14.30;9.68;;;15.70;79.20;;;;;;4172405;28;20537;-62
2023/01/03 14:07:45;;;;;;;13.95;8.75;;;15.70;79.50;;;;;;4172121;28;20097;-62
2023/01/03 14:10:43;;;;;;;11.18;8.88;;;15.70;79.40;;;;;;4175761;28;20056;-63
2023/01/03 14:13:38;;;;;;;16.20;9.75;;;15.70;79.40;;;;;;4182475;28;20194;-62
2023/01/03 14:16:27;;;;;;;14.98;9.02;;;15.60;79.50;;;;;;4175473;28;20067;-62
2023/01/03 14:19:17;;;;;;;14.45;9.57;;;15.60;79.60;;;;;;4190626;28;20055;-62
2023/01/03 14:22:00;;;;;;;13.18;8.57;;;15.70;79.50;;;;;;4175661;28;20063;-62
2023/01/03 14:25:01;;;;;;;13.68;8.98;;;15.60;79.60;;;;;;4189833;28;20201;-62
2023/01/03 14:27:43;;;;;;;12.45;8.30;;;15.60;79.70;;;;;;4175295;28;20064;-62
2023/01/03 14:30:29;;;;;;;14.20;9.15;;;15.70;79.70;;;;;;4185878;28;20071;-62
2023/01/03 14:33:17;;;;;;;9.98;8.68;;;15.60;79.50;;;;;;4189842;28;20510;-62
2023/01/03 14:36:02;;;;;;;12.10;9.05;;;15.60;79.50;;;;;;4183570;28;20052;-63
2023/01/03 14:38:48;;;;;;;13.50;8.38;;;15.60;79.60;;;;;;4187049;28;20063;-62
2023/01/03 14:41:31;;;;;;;13.90;8.77;;;15.60;79.80;;;;;;4187384;28;20162;-63
2023/01/03 14:44:16;;;;;;;10.68;8.93;;;15.50;79.90;;;;;;4178534;28;20070;-63
2023/01/03 14:47:00;;;;;;;12.35;8.85;;;15.60;80.10;;;;;;4176456;28;20060;-63
2023/01/03 14:49:44;;;;;;;14.38;9.88;;;15.70;79.70;;;;;;4180803;28;20055;-61
2023/01/03 14:52:30;;;;;;;12.95;8.40;;;15.80;79.20;;;;;;4176840;28;20060;-61
2023/01/03 14:55:15;;;;;;;15.65;9.73;;;15.90;78.80;;;;;;4177051;28;20059;-61
2023/01/03 14:57:57;;;;;;;12.25;9.70;;;15.90;78.40;;;;;;4177409;28;20517;-61
2023/01/03 15:00:40;;;;;;;14.93;9.57;;;16.00;78.60;;;;;;4170494;28;20059;-62
2023/01/03 15:03:21;;;;;;;12.82;8.95;;;16.00;78.50;;;;;;4194221;28;20052;-61
2023/01/03 15:06:17;;;;;;;15.07;10.13;;;16.00;78.30;;;;;;4194113;28;20055;-61
2023/01/03 15:09:00;;;;;;;12.23;8.95;;;16.00;78.10;;;;;;4192693;28;20173;-62
2023/01/03 15:11:55;;;;;;;13.73;8.70;;;16.00;78.00;;;;;;4193752;28;20056;-61
2023/01/03 15:14:38;;;;;;;12.05;8.85;;;16.10;77.80;;;;;;4175781;28;20079;-62
2023/01/03 15:17:25;;;;;;;12.25;8.93;;;16.20;77.60;;;;;;4177073;28;20047;-61
2023/01/03 15:20:08;;;;;;;12.02;8.82;;;16.20;77.20;;;;;;4164279;28;20494;-61
2023/01/03 15:22:49;;;;;;;12.18;9.35;;;16.20;77.20;;;;;;4176748;28;20395;-62